Time;durP1;ratioP1;P1;durP2;ratioP2;P2;SDS_P1;SDS_P2;PMS_P1;PMS_P2;Temp;Humidity;BMP_temperature;BMP_pressure;BME280_temperature;BME280_humidity;BME280_pressure;Samples;Min_cycle;Max_cycle;Signal;HPM_P1;HPM_P2
2022/10/23 00:04:21;;;;;;;;;;;;;;;19.87;50.83;95871.28;10495724;28;1905;-51
2022/10/23 00:09:22;;;;;;;;;;;;;;;19.87;50.81;95868.66;10492860;28;1673;-46
2022/10/23 00:14:22;;;;;;;;;;;;;;;19.86;51.12;95869.72;10495601;28;932;-46
2022/10/23 00:19:23;;;;;;;;;;;;;;;19.87;50.97;95856.28;10489050;28;1650;-50
2022/10/23 00:24:23;;;;;;;;;;;;;;;19.84;50.95;95871.84;10494663;28;1918;-48
2022/10/23 00:29:24;;;;;;;;;;;;;;;19.87;50.68;95874.72;10487783;28;1468;-50
2022/10/23 00:34:24;;;;;;;;;;;;;;;19.79;51.01;95870.00;10494245;28;1141;-50
2022/10/23 00:39:25;;;;;;;;;;;;;;;19.86;50.81;95859.19;10494617;28;1532;-49
2022/10/23 00:44:28;;;;;;;;;;;;;;;19.82;51.02;95868.69;10494449;28;1980;-45
2022/10/23 00:49:29;;;;;;;;;;;;;;;19.85;50.67;95868.94;10488492;28;1602;-46
2022/10/23 00:54:36;;;;;;;;;;;;;;;19.80;50.83;95868.94;10492968;28;1623;-47
2022/10/23 00:59:37;;;;;;;;;;;;;;;19.81;50.67;95865.25;10480279;28;1440;-50
2022/10/23 01:04:37;;;;;;;;;;;;;;;19.83;50.96;95867.59;10492909;28;1961;-47
2022/10/23 01:09:56;;;;;;;;;;;;;;;19.82;50.88;95863.41;10489293;28;1650;-45
2022/10/23 01:14:59;;;;;;;;;;;;;;;19.82;50.86;95845.81;10489957;28;1657;-46
2022/10/23 01:20:00;;;;;;;;;;;;;;;19.78;50.92;95849.22;10480278;28;1174;-49
2022/10/23 01:25:03;;;;;;;;;;;;;;;19.82;50.66;95839.75;10490964;28;2189;-48
2022/10/23 01:30:08;;;;;;;;;;;;;;;19.78;50.82;95836.88;10488308;28;1464;-50
2022/10/23 01:35:17;;;;;;;;;;;;;;;19.80;50.67;95828.69;10477798;28;1109;-47
2022/10/23 01:40:22;;;;;;;;;;;;;;;19.77;50.94;95843.16;10469055;28;1665;-50
2022/10/23 01:45:33;;;;;;;;;;;;;;;19.76;50.90;95848.69;10432687;28;1973;-48
2022/10/23 01:50:33;;;;;;;;;;;;;;;19.78;50.80;95839.50;10477508;28;1605;-48
2022/10/23 01:55:34;;;;;;;;;;;;;;;19.76;50.88;95828.47;10472175;28;1443;-49
2022/10/23 02:00:35;;;;;;;;;;;;;;;19.77;50.76;95821.34;10470737;28;1450;-49
2022/10/23 02:05:35;;;;;;;;;;;;;;;19.73;50.93;95821.09;10491855;28;1906;-47
2022/10/23 02:10:41;;;;;;;;;;;;;;;19.71;51.01;95809.25;10488374;28;1689;-46
2022/10/23 02:15:49;;;;;;;;;;;;;;;19.71;50.74;95796.09;10484888;28;1677;-52
2022/10/23 02:21:09;;;;;;;;;;;;;;;19.71;50.92;95796.91;10492264;28;1117;-51
2022/10/23 02:26:11;;;;;;;;;;;;;;;19.71;50.93;95796.09;10484581;28;1906;-50
2022/10/23 02:31:12;;;;;;;;;;;;;;;19.73;50.95;95792.16;10487433;28;1515;-48
2022/10/23 02:36:18;;;;;;;;;;;;;;;19.68;50.73;95781.63;10473090;28;1503;-46
2022/10/23 02:41:21;;;;;;;;;;;;;;;19.70;50.87;95779.53;10482854;28;1023;-47
2022/10/23 02:46:28;;;;;;;;;;;;;;;19.66;50.80;95773.22;10487671;28;1982;-46
2022/10/23 02:51:38;;;;;;;;;;;;;;;19.68;50.78;95765.84;10476460;28;1026;-49
2022/10/23 02:57:05;;;;;;;;;;;;;;;19.66;50.79;95767.97;10497281;28;1543;-48
2022/10/23 03:02:07;;;;;;;;;;;;;;;19.65;50.79;95760.34;10491982;28;1926;-48
2022/10/23 03:07:11;;;;;;;;;;;;;;;19.65;50.88;95771.66;10493048;28;1630;-45
2022/10/23 03:12:11;;;;;;;;;;;;;;;19.64;50.92;95769.31;10486560;28;1377;-47
2022/10/23 03:17:16;;;;;;;;;;;;;;;19.67;50.72;95766.91;10494337;28;1614;-51
2022/10/23 03:22:16;;;;;;;;;;;;;;;19.65;50.74;95765.59;10496808;28;1902;-46
2022/10/23 03:27:16;;;;;;;;;;;;;;;19.62;51.02;95758.28;10490638;28;1661;-46
2022/10/23 03:32:17;;;;;;;;;;;;;;;19.64;50.76;95756.94;10492527;28;1534;-46
2022/10/23 03:37:17;;;;;;;;;;;;;;;19.64;50.71;95745.63;10496973;28;1626;-49
2022/10/23 03:42:18;;;;;;;;;;;;;;;19.63;50.91;95754.56;10454594;28;2370;-49
2022/10/23 03:47:18;;;;;;;;;;;;;;;19.61;50.90;95754.06;10480140;28;1626;-49
2022/10/23 03:52:18;;;;;;;;;;;;;;;19.63;50.61;95755.38;10491602;28;1590;-50
2022/10/23 03:57:19;;;;;;;;;;;;;;;19.62;50.64;95758.28;10495511;28;1118;-50
2022/10/23 04:02:19;;;;;;;;;;;;;;;19.60;50.97;95749.84;10491463;28;1910;-50
2022/10/23 04:07:19;;;;;;;;;;;;;;;19.63;50.55;95757.19;10490712;28;1634;-48
2022/10/23 04:12:20;;;;;;;;;;;;;;;19.61;50.88;95746.16;10495062;28;1126;-46
2022/10/23 04:17:20;;;;;;;;;;;;;;;19.60;50.70;95749.84;10488123;28;1634;-47
2022/10/23 04:22:21;;;;;;;;;;;;;;;19.59;50.92;95754.31;10494910;28;1913;-48
2022/10/23 04:27:21;;;;;;;;;;;;;;;19.59;50.86;95753.53;10487858;28;1672;-51
2022/10/23 04:32:21;;;;;;;;;;;;;;;19.57;50.84;95740.66;10490358;28;1708;-49
2022/10/23 04:37:21;;;;;;;;;;;;;;;19.58;50.83;95758.00;10493228;28;1618;-50
2022/10/23 04:42:22;;;;;;;;;;;;;;;19.58;50.78;95750.09;10494309;28;1918;-50
2022/10/23 04:47:22;;;;;;;;;;;;;;;19.57;50.68;95745.13;10485748;28;1610;-50
2022/10/23 04:52:22;;;;;;;;;;;;;;;19.58;50.84;95744.09;10493713;28;901;-47
2022/10/23 04:57:22;;;;;;;;;;;;;;;19.56;50.84;95748.81;10493497;28;1678;-50
2022/10/23 05:02:23;;;;;;;;;;;;;;;19.56;50.67;95738.31;10488988;28;1914;-51
2022/10/23 05:07:23;;;;;;;;;;;;;;;19.55;50.58;95729.63;10489547;28;1658;-52
2022/10/23 05:12:25;;;;;;;;;;;;;;;19.54;50.84;95729.91;10493811;28;1129;-52
2022/10/23 05:17:26;;;;;;;;;;;;;;;19.53;50.60;95715.94;10489125;28;1653;-47
2022/10/23 05:22:28;;;;;;;;;;;;;;;19.54;50.89;95740.41;10492451;28;1976;-52
2022/10/23 05:27:29;;;;;;;;;;;;;;;19.55;50.59;95726.19;10484716;28;1539;-49
2022/10/23 05:32:29;;;;;;;;;;;;;;;19.54;50.66;95708.88;10488176;28;1570;-49
2022/10/23 05:37:30;;;;;;;;;;;;;;;19.52;50.59;95713.56;10492133;28;1677;-49
2022/10/23 05:42:30;;;;;;;;;;;;;;;19.52;50.79;95713.56;10486440;28;1902;-51
2022/10/23 05:47:30;;;;;;;;;;;;;;;19.52;50.57;95700.44;10466117;28;1713;-51
2022/10/23 05:52:30;;;;;;;;;;;;;;;19.51;50.83;95699.66;10492018;28;1097;-47
2022/10/23 05:57:31;;;;;;;;;;;;;;;19.50;50.70;95700.69;10489947;28;1466;-51
2022/10/23 06:02:32;;;;;;;;;;;;;;;19.52;50.61;95717.00;10469963;28;1910;-50
2022/10/23 06:07:32;;;;;;;;;;;;;;;19.50;50.55;95719.09;10487192;28;1630;-47
2022/10/23 06:12:32;;;;;;;;;;;;;;;19.52;50.76;95729.34;10473403;28;2644;-49
2022/10/23 06:17:33;;;;;;;;;;;;;;;19.49;50.58;95734.09;10484698;28;1646;-50
2022/10/23 06:22:33;;;;;;;;;;;;;;;19.50;50.80;95729.63;10491452;28;1975;-51
2022/10/23 06:27:36;;;;;;;;;;;;;;;19.48;50.51;95722.00;10492962;28;1677;-49
2022/10/23 06:32:37;;;;;;;;;;;;;;;19.51;50.84;95714.63;10495290;28;1583;-48
2022/10/23 06:37:37;;;;;;;;;;;;;;;19.49;50.75;95718.31;10498880;28;1657;-49
2022/10/23 06:42:37;;;;;;;;;;;;;;;19.51;50.51;95719.91;10495687;28;1957;-49
2022/10/23 06:47:38;;;;;;;;;;;;;;;19.49;50.41;95720.16;10498218;28;1724;-53
2022/10/23 06:52:45;;;;;;;;;;;;;;;19.49;50.67;95720.16;10502065;28;1157;-50
2022/10/23 06:57:45;;;;;;;;;;;;;;;19.48;50.45;95722.00;10493163;28;1550;-49
2022/10/23 07:02:46;;;;;;;;;;;;;;;19.51;50.62;95730.41;10494559;28;1922;-51
2022/10/23 07:07:46;;;;;;;;;;;;;;;19.51;50.33;95746.19;10497485;28;1603;-48
2022/10/23 07:12:47;;;;;;;;;;;;;;;19.51;50.44;95746.97;10497862;28;1101;-45
2022/10/23 07:17:48;;;;;;;;;;;;;;;19.56;50.53;95733.81;10491102;28;1673;-50
2022/10/23 07:22:53;;;;;;;;;;;;;;;19.53;50.54;95729.09;10498095;28;1914;-49
2022/10/23 07:27:56;;;;;;;;;;;;;;;19.52;50.50;95716.19;10490988;28;1571;-50
2022/10/23 07:33:07;;;;;;;;;;;;;;;19.54;50.68;95708.88;10496773;28;1026;-52
2022/10/23 07:38:08;;;;;;;;;;;;;;;19.54;50.69;95724.63;10494342;28;1626;-49
2022/10/23 07:43:08;;;;;;;;;;;;;;;19.54;50.60;95720.16;10495369;28;1918;-48
2022/10/23 07:48:08;;;;;;;;;;;;;;;19.53;50.66;95736.19;10488533;28;1594;-51
2022/10/23 07:53:16;;;;;;;;;;;;;;;19.56;50.54;95733.03;10496368;28;1106;-47
2022/10/23 07:58:16;;;;;;;;;;;;;;;19.56;50.76;95730.41;10471858;28;1483;-48
2022/10/23 08:03:16;;;;;;;;;;;;;;;19.57;50.65;95729.34;10495443;28;1967;-50
2022/10/23 08:08:16;;;;;;;;;;;;;;;19.60;50.60;95713.81;10488551;28;1650;-51
2022/10/23 08:13:19;;;;;;;;;;;;;;;19.62;50.46;95716.97;10495481;28;1311;-49
2022/10/23 08:18:19;;;;;;;;;;;;;;;19.63;50.27;95713.28;10488079;28;1650;-52
2022/10/23 08:23:19;;;;;;;;;;;;;;;19.67;50.48;95713.53;10495084;28;1980;-48
2022/10/23 08:28:20;;;;;;;;;;;;;;;19.64;50.44;95714.84;10486672;28;1647;-48
2022/10/23 08:33:20;;;;;;;;;;;;;;;19.68;50.30;95709.88;10494348;28;1109;-49
2022/10/23 08:38:20;;;;;;;;;;;;;;;19.69;50.34;95711.41;10488733;28;1626;-50
2022/10/23 08:43:26;;;;;;;;;;;;;;;19.71;50.08;95710.09;10493300;28;1910;-48
2022/10/23 08:48:30;;;;;;;;;;;;;;;19.70;50.33;95705.13;10475688;28;1121;-51
2022/10/23 08:53:31;;;;;;;;;;;;;;;19.73;50.47;95709.81;10470608;28;1685;-50
2022/10/23 08:58:37;;;;;;;;;;;;;;;19.71;50.32;95701.41;10486959;28;1647;-47
2022/10/23 09:03:38;;;;;;;;;;;;;;;19.70;50.47;95679.59;10475536;28;1980;-51
2022/10/23 09:08:57;;;;;;;;;;;;;;;19.70;50.25;95678.81;10489360;28;1617;-52
2022/10/23 09:14:00;;;;;;;;;;;;;;;19.71;50.41;95670.66;10494273;28;1109;-48
2022/10/23 09:19:00;;;;;;;;;;;;;;;19.69;50.41;95671.97;10485402;28;1893;-52
2022/10/23 09:24:01;;;;;;;;;;;;;;;19.71;50.36;95672.50;10475003;28;1909;-49
2022/10/23 09:29:05;;;;;;;;;;;;;;;19.66;50.45;95667.28;10470953;28;1457;-51
2022/10/23 09:34:05;;;;;;;;;;;;;;;19.65;50.53;95663.84;10474561;28;1091;-51
2022/10/23 09:39:17;;;;;;;;;;;;;;;19.64;50.49;95672.00;10492110;28;1686;-49
2022/10/23 09:44:19;;;;;;;;;;;;;;;19.70;50.27;95676.19;10479864;28;1918;-48
2022/10/23 09:49:21;;;;;;;;;;;;;;;19.66;50.50;95664.66;10487415;28;1573;-50
2022/10/23 09:54:22;;;;;;;;;;;;;;;19.64;50.47;95656.25;10492858;28;1408;-49
2022/10/23 09:59:24;;;;;;;;;;;;;;;19.65;50.42;95647.28;10482107;28;1506;-51
2022/10/23 10:04:34;;;;;;;;;;;;;;;19.64;50.59;95643.84;10492092;28;1923;-49
2022/10/23 10:09:35;;;;;;;;;;;;;;;19.69;50.36;95638.59;10498738;28;1674;-48
2022/10/23 10:14:45;;;;;;;;;;;;;;;19.68;50.67;95637.00;10482351;28;872;-53
2022/10/23 10:20:03;;;;;;;;;;;;;;;19.67;50.68;95642.53;10500174;28;1030;-53
2022/10/23 10:25:27;;;;;;;;;;;;;;;19.68;50.75;95639.63;10475443;28;1971;-50
2022/10/23 10:30:29;;;;;;;;;;;;;;;19.66;50.89;95630.47;10485403;28;1507;-47
2022/10/23 10:35:56;;;;;;;;;;;;;;;19.68;50.89;95631.72;10500012;28;1122;-47
2022/10/23 10:41:25;;;;;;;;;;;;;;;19.66;50.77;95623.34;10461169;28;1626;-49
2022/10/23 10:46:31;;;;;;;;;;;;;;;19.67;51.09;95617.03;10482877;28;1975;-48
2022/10/23 10:51:32;;;;;;;;;;;;;;;19.67;51.03;95600.47;10499046;28;1242;-48
2022/10/23 10:56:32;;;;;;;;;;;;;;;19.68;50.88;95594.91;10494314;28;1676;-49
2022/10/23 11:01:38;;;;;;;;;;;;;;;19.70;51.08;95586.78;10487265;28;1663;-48
2022/10/23 11:06:38;;;;;;;;;;;;;;;19.73;51.16;95578.34;10477940;28;2001;-51
2022/10/23 11:11:42;;;;;;;;;;;;;;;19.70;51.12;95574.41;10490893;28;1563;-47
2022/10/23 11:16:44;;;;;;;;;;;;;;;19.71;51.07;95567.31;10490976;28;1558;-51
2022/10/23 11:21:46;;;;;;;;;;;;;;;19.71;51.11;95567.31;10495282;28;1137;-50
2022/10/23 11:26:50;;;;;;;;;;;;;;;19.72;51.08;95561.75;10460815;28;1906;-51
2022/10/23 11:32:02;;;;;;;;;;;;;;;19.72;51.17;95559.13;10491718;28;1555;-49
2022/10/23 11:37:03;;;;;;;;;;;;;;;19.71;51.10;95556.78;10454465;28;1734;-48
2022/10/23 11:42:04;;;;;;;;;;;;;;;19.74;50.97;95548.34;10493107;28;1913;-46
2022/10/23 11:47:05;;;;;;;;;;;;;;;19.71;51.30;95551.53;10486513;28;1713;-49
2022/10/23 11:57:23;;;;;;;;;;;;;;;19.71;51.18;95519.97;10603901;27;1613;-48
2022/10/23 12:02:27;;;;;;;;;;;;;;;19.76;51.15;95523.38;10568251;28;1736;-50
2022/10/23 12:07:30;;;;;;;;;;;;;;;19.79;50.92;95522.00;10573502;28;873;-47
2022/10/23 12:12:32;;;;;;;;;;;;;;;19.75;51.21;95527.03;10571777;28;1909;-50
2022/10/23 12:17:34;;;;;;;;;;;;;;;19.85;50.70;95516.44;10549578;28;1698;-50
2022/10/23 12:22:41;;;;;;;;;;;;;;;19.86;50.77;95507.50;10556137;28;1220;-50
2022/10/23 12:27:48;;;;;;;;;;;;;;;19.88;51.01;95508.03;10566722;28;1554;-49
2022/10/23 12:32:54;;;;;;;;;;;;;;;19.88;50.80;95502.75;10566754;27;1975;-51
2022/10/23 12:37:55;;;;;;;;;;;;;;;19.84;50.88;95495.69;10567922;28;1666;-50
2022/10/23 12:42:59;;;;;;;;;;;;;;;19.78;51.17;95484.44;10573510;28;1084;-50
2022/10/23 12:48:00;;;;;;;;;;;;;;;19.78;51.23;95481.78;10571474;28;1608;-49
2022/10/23 12:53:14;;;;;;;;;;;;;;;19.79;51.34;95477.31;10573337;27;1921;-50
2022/10/23 12:58:18;;;;;;;;;;;;;;;19.82;51.02;95479.41;10573476;28;1432;-50
2022/10/23 13:03:20;;;;;;;;;;;;;;;19.98;50.77;95470.31;10562431;28;1153;-50
2022/10/23 13:08:21;;;;;;;;;;;;;;;20.28;50.21;95477.97;10539396;28;1611;-50
2022/10/23 13:13:22;;;;;;;;;;;;;;;20.50;49.47;95464.34;10540366;28;1906;-49
2022/10/23 13:18:25;;;;;;;;;;;;;;;20.46;49.53;95458.06;10522331;28;1672;-48
2022/10/23 13:23:29;;;;;;;;;;;;;;;20.33;49.98;95467.41;10532831;28;1655;-48
2022/10/23 13:28:34;;;;;;;;;;;;;;;20.35;49.90;95457.38;10535085;28;1466;-50
2022/10/23 13:33:34;;;;;;;;;;;;;;;20.51;49.79;95456.16;10540695;28;1963;-48
2022/10/23 13:38:35;;;;;;;;;;;;;;;20.59;49.65;95454.75;10531819;28;1714;-48
2022/10/23 13:43:36;;;;;;;;;;;;;;;20.59;49.57;95447.63;10521579;28;1188;-50
2022/10/23 13:48:37;;;;;;;;;;;;;;;20.41;49.97;95444.94;10530364;28;1663;-49
2022/10/23 13:53:37;;;;;;;;;;;;;;;20.29;50.27;95440.06;10538892;28;1929;-47
2022/10/23 13:58:38;;;;;;;;;;;;;;;20.18;50.57;95438.56;10534920;28;1452;-48
2022/10/23 14:03:39;;;;;;;;;;;;;;;20.12;50.85;95447.56;10538175;28;2568;-48
2022/10/23 14:08:39;;;;;;;;;;;;;;;20.06;50.93;95443.41;10538129;28;1607;-47
2022/10/23 14:13:39;;;;;;;;;;;;;;;20.00;51.10;95442.69;10538673;28;1894;-50
2022/10/23 14:18:40;;;;;;;;;;;;;;;20.01;51.16;95443.47;10511581;28;1631;-50
2022/10/23 14:23:40;;;;;;;;;;;;;;;19.96;51.30;95435.59;10538982;28;1109;-47
2022/10/23 14:28:41;;;;;;;;;;;;;;;19.92;51.23;95431.97;10531530;28;1643;-48
2022/10/23 14:33:42;;;;;;;;;;;;;;;19.92;51.51;95429.34;10538291;28;1958;-50
2022/10/23 14:38:42;;;;;;;;;;;;;;;19.87;51.33;95432.00;10531600;28;1611;-51
2022/10/23 14:43:43;;;;;;;;;;;;;;;19.85;51.49;95421.75;10537277;28;1100;-51
2022/10/23 14:48:43;;;;;;;;;;;;;;;19.85;51.29;95436.75;10528803;28;1643;-52
2022/10/23 14:53:44;;;;;;;;;;;;;;;19.84;51.43;95429.94;10536903;28;1973;-53
2022/10/23 14:58:45;;;;;;;;;;;;;;;19.81;51.34;95425.22;10532048;28;1560;-50
2022/10/23 15:03:47;;;;;;;;;;;;;;;19.83;51.48;95413.34;10519462;28;1544;-49
2022/10/23 15:08:48;;;;;;;;;;;;;;;19.83;51.22;95412.56;10528912;28;1805;-49
2022/10/23 15:13:49;;;;;;;;;;;;;;;19.82;51.48;95417.06;10535427;28;1975;-52
2022/10/23 15:18:49;;;;;;;;;;;;;;;19.79;51.55;95406.28;10532726;28;1627;-51
2022/10/23 15:23:51;;;;;;;;;;;;;;;19.81;51.40;95409.44;10536277;28;1135;-51
2022/10/23 15:29:00;;;;;;;;;;;;;;;19.77;51.33;95403.16;10516975;28;1627;-52
2022/10/23 15:34:00;;;;;;;;;;;;;;;19.77;51.38;95405.78;10536838;28;1961;-48
2022/10/23 15:39:01;;;;;;;;;;;;;;;19.74;51.56;95401.09;10525025;28;1745;-47
2022/10/23 15:44:02;;;;;;;;;;;;;;;19.76;51.53;95396.34;10537014;28;1121;-52
2022/10/23 15:49:07;;;;;;;;;;;;;;;19.78;51.78;95389.75;10535035;28;1639;-49
2022/10/23 15:54:08;;;;;;;;;;;;;;;19.80;51.75;95392.09;10538899;28;1886;-51
2022/10/23 15:59:09;;;;;;;;;;;;;;;19.81;51.51;95394.44;10507925;28;2111;-52
2022/10/23 16:04:09;;;;;;;;;;;;;;;19.76;51.74;95380.56;10537007;28;1219;-47
2022/10/23 16:09:10;;;;;;;;;;;;;;;19.81;51.55;95383.91;10529109;28;1761;-47
2022/10/23 16:14:15;;;;;;;;;;;;;;;19.77;51.65;95375.00;10531217;28;1897;-52
2022/10/23 16:19:15;;;;;;;;;;;;;;;19.76;51.51;95380.56;10551668;28;1140;-48
2022/10/23 16:24:16;;;;;;;;;;;;;;;19.73;51.75;95371.38;10527232;28;1671;-50
2022/10/23 16:29:18;;;;;;;;;;;;;;;19.74;51.56;95370.28;10564037;28;1533;-47
2022/10/23 16:34:18;;;;;;;;;;;;;;;19.73;51.87;95370.56;10492094;28;1979;-49
2022/10/23 16:39:19;;;;;;;;;;;;;;;19.73;51.61;95367.94;10533027;28;1572;-50
2022/10/23 16:44:19;;;;;;;;;;;;;;;19.73;51.66;95365.31;10542832;28;936;-51
2022/10/23 16:49:20;;;;;;;;;;;;;;;19.71;51.86;95367.44;10538311;28;1651;-49
2022/10/23 16:54:21;;;;;;;;;;;;;;;19.68;51.62;95368.78;10542982;28;1891;-52
2022/10/23 16:59:21;;;;;;;;;;;;;;;19.68;51.74;95375.91;10535228;28;1655;-51
2022/10/23 17:04:22;;;;;;;;;;;;;;;19.69;52.01;95380.09;10542704;28;1153;-47
2022/10/23 17:09:25;;;;;;;;;;;;;;;19.68;51.71;95383.78;10539719;28;1710;-49
2022/10/23 17:14:28;;;;;;;;;;;;;;;19.69;51.69;95386.13;10539593;28;1980;-52
2022/10/23 17:19:30;;;;;;;;;;;;;;;19.69;51.83;95396.66;10539117;28;1670;-50
2022/10/23 17:24:33;;;;;;;;;;;;;;;19.68;51.90;95392.44;10531998;28;1674;-49
2022/10/23 17:29:34;;;;;;;;;;;;;;;19.66;51.80;95409.56;10537718;28;1862;-52
2022/10/23 17:34:35;;;;;;;;;;;;;;;19.67;52.01;95392.72;10539900;28;1914;-49
2022/10/23 17:39:36;;;;;;;;;;;;;;;19.67;51.92;95403.25;10522072;28;1763;-52
2022/10/23 17:44:37;;;;;;;;;;;;;;;19.66;51.91;95412.97;10538756;28;1521;-49
2022/10/23 17:49:37;;;;;;;;;;;;;;;19.65;51.94;95410.63;10533017;28;1611;-50
2022/10/23 17:54:38;;;;;;;;;;;;;;;19.66;51.74;95412.22;10537010;28;1886;-51
2022/10/23 17:59:39;;;;;;;;;;;;;;;19.67;51.63;95414.56;10532305;28;1461;-49
2022/10/23 18:04:39;;;;;;;;;;;;;;;19.67;51.84;95411.13;10540546;28;1163;-47
2022/10/23 18:09:40;;;;;;;;;;;;;;;19.64;51.69;95398.56;10535667;28;1658;-47
2022/10/23 18:14:41;;;;;;;;;;;;;;;19.67;51.59;95416.38;10539999;28;1901;-52
2022/10/23 18:19:42;;;;;;;;;;;;;;;19.66;51.87;95417.47;10532327;28;1803;-50
2022/10/23 18:24:42;;;;;;;;;;;;;;;19.66;51.88;95438.50;10537750;28;1401;-52
2022/10/23 18:29:43;;;;;;;;;;;;;;;19.64;51.73;95433.50;10527950;28;1531;-46
2022/10/23 18:34:43;;;;;;;;;;;;;;;19.67;51.87;95421.66;10535564;28;1906;-50
2022/10/23 18:39:44;;;;;;;;;;;;;;;19.66;51.85;95406.94;10536291;28;1615;-49
2022/10/23 18:44:48;;;;;;;;;;;;;;;19.69;51.85;95427.41;10537689;28;698;-49
2022/10/23 18:49:48;;;;;;;;;;;;;;;19.63;51.79;95416.16;10535782;28;1666;-48
2022/10/23 18:54:49;;;;;;;;;;;;;;;19.64;51.95;95425.59;10537740;28;1910;-47
2022/10/23 18:59:49;;;;;;;;;;;;;;;19.65;51.76;95410.63;10534418;28;1776;-51
2022/10/23 19:04:54;;;;;;;;;;;;;;;19.64;51.72;95414.31;10536550;28;1118;-52
2022/10/23 19:09:55;;;;;;;;;;;;;;;19.68;51.80;95407.47;10532482;28;1608;-48
2022/10/23 19:14:55;;;;;;;;;;;;;;;19.66;51.80;95418.22;10535035;28;1913;-52
2022/10/23 19:19:58;;;;;;;;;;;;;;;19.65;51.86;95415.88;10535586;28;1132;-50
2022/10/23 19:25:03;;;;;;;;;;;;;;;19.70;51.67;95424.50;10526762;28;1703;-51
2022/10/23 19:30:07;;;;;;;;;;;;;;;19.65;51.71;95427.19;10531580;28;1434;-48
2022/10/23 19:35:07;;;;;;;;;;;;;;;19.67;51.80;95425.06;10534669;28;1906;-48
2022/10/23 19:40:16;;;;;;;;;;;;;;;19.69;51.78;95427.41;10528414;28;1659;-49
2022/10/23 19:45:17;;;;;;;;;;;;;;;19.65;51.78;95432.44;10530247;28;1631;-51
2022/10/23 19:50:17;;;;;;;;;;;;;;;19.66;51.89;95422.72;10534325;28;1461;-47
2022/10/23 19:55:17;;;;;;;;;;;;;;;19.67;51.56;95429.53;10534504;28;1921;-48
2022/10/23 20:00:19;;;;;;;;;;;;;;;19.62;51.73;95432.97;10521988;28;1402;-46
2022/10/23 20:05:19;;;;;;;;;;;;;;;19.65;51.89;95429.03;10534303;28;968;-46
2022/10/23 20:10:19;;;;;;;;;;;;;;;19.64;51.97;95419.59;10527637;28;1706;-54
2022/10/23 20:15:25;;;;;;;;;;;;;;;19.66;51.85;95435.88;10536861;28;1906;-50
2022/10/23 20:20:25;;;;;;;;;;;;;;;19.65;51.94;95419.31;10536506;28;1642;-48
2022/10/23 20:25:26;;;;;;;;;;;;;;;19.66;51.73;95420.09;10542483;28;916;-49
2022/10/23 20:30:26;;;;;;;;;;;;;;;19.65;51.86;95429.81;10536789;28;1540;-48
2022/10/23 20:35:26;;;;;;;;;;;;;;;19.63;51.87;95439.03;10541569;28;1905;-48
2022/10/23 20:40:27;;;;;;;;;;;;;;;19.66;51.81;95454.28;10539020;28;1619;-49
2022/10/23 20:45:29;;;;;;;;;;;;;;;19.71;51.70;95460.28;10539356;28;1603;-50
2022/10/23 20:50:33;;;;;;;;;;;;;;;19.69;51.54;95495.78;10535036;28;1025;-48
2022/10/23 20:55:33;;;;;;;;;;;;;;;19.65;51.70;95523.69;10538439;28;1894;-47
2022/10/23 21:00:33;;;;;;;;;;;;;;;19.65;51.91;95534.22;10537099;28;1497;-48
2022/10/23 21:05:34;;;;;;;;;;;;;;;19.62;51.85;95542.66;10540694;28;859;-50
2022/10/23 21:10:34;;;;;;;;;;;;;;;19.63;51.89;95581.81;10538626;28;1615;-50
2022/10/23 21:15:35;;;;;;;;;;;;;;;19.65;52.02;95599.94;10537531;28;1902;-49
2022/10/23 21:20:35;;;;;;;;;;;;;;;19.65;51.73;95589.44;10539849;28;1129;-49
2022/10/23 21:25:39;;;;;;;;;;;;;;;19.62;51.71;95592.63;10531329;28;1699;-50
2022/10/23 21:30:40;;;;;;;;;;;;;;;19.63;51.58;95586.28;10536297;28;1481;-52
2022/10/23 21:35:40;;;;;;;;;;;;;;;19.63;51.67;95586.28;10540058;28;1918;-50
2022/10/23 21:40:40;;;;;;;;;;;;;;;19.63;51.61;95599.44;10533834;28;1651;-47
2022/10/23 21:45:41;;;;;;;;;;;;;;;19.64;51.91;95614.16;10539063;28;860;-53
2022/10/23 21:50:42;;;;;;;;;;;;;;;19.64;51.82;95628.06;10533929;28;1627;-52
2022/10/23 21:55:42;;;;;;;;;;;;;;;19.65;51.61;95640.19;10539198;28;1905;-51
2022/10/23 22:00:42;;;;;;;;;;;;;;;19.65;51.60;95642.00;10540769;28;1382;-51
2022/10/23 22:05:43;;;;;;;;;;;;;;;19.63;51.89;95647.56;10536951;28;1249;-50
2022/10/23 22:10:43;;;;;;;;;;;;;;;19.64;51.54;95666.75;10534922;28;1663;-54
2022/10/23 22:15:43;;;;;;;;;;;;;;;19.64;51.84;95672.00;10537753;28;1918;-52
2022/10/23 22:20:44;;;;;;;;;;;;;;;19.65;51.78;95673.56;10533943;28;1564;-48
2022/10/23 22:25:54;;;;;;;;;;;;;;;19.63;51.89;95673.06;10536280;28;1667;-49
2022/10/23 22:30:54;;;;;;;;;;;;;;;19.66;51.75;95693.56;10530863;28;1510;-49
2022/10/23 22:36:01;;;;;;;;;;;;;;;19.62;51.93;95695.16;10537388;28;1977;-51
2022/10/23 22:41:02;;;;;;;;;;;;;;;19.62;51.90;95697.78;10536165;28;1611;-50
2022/10/23 22:46:03;;;;;;;;;;;;;;;19.62;51.67;95709.06;10537311;28;951;-50
2022/10/23 22:51:03;;;;;;;;;;;;;;;19.60;51.80;95699.91;10530145;28;1548;-49
2022/10/23 22:56:15;;;;;;;;;;;;;;;19.64;51.65;95719.34;10536365;28;1910;-53
2022/10/23 23:01:17;;;;;;;;;;;;;;;19.62;51.85;95729.34;10533259;28;1609;-52
2022/10/23 23:06:18;;;;;;;;;;;;;;;19.62;51.76;95716.19;10535079;28;1576;-52
2022/10/23 23:11:19;;;;;;;;;;;;;;;19.67;51.62;95719.59;10535870;28;1108;-49
2022/10/23 23:16:20;;;;;;;;;;;;;;;19.64;51.64;95724.59;10527829;28;1981;-50
2022/10/23 23:21:21;;;;;;;;;;;;;;;19.62;51.90;95722.22;10535696;28;1096;-52
2022/10/23 23:26:21;;;;;;;;;;;;;;;19.60;51.82;95726.19;10523740;28;1659;-52
2022/10/23 23:31:22;;;;;;;;;;;;;;;19.63;51.78;95728.28;10527417;28;1880;-48
2022/10/23 23:36:23;;;;;;;;;;;;;;;19.62;51.76;95731.97;10533002;28;1910;-51
2022/10/23 23:41:25;;;;;;;;;;;;;;;19.57;52.00;95730.13;10494745;28;986;-50
2022/10/23 23:46:26;;;;;;;;;;;;;;;19.59;52.02;95733.28;10525840;28;1726;-51
2022/10/23 23:51:26;;;;;;;;;;;;;;;19.63;51.87;95733.53;10492818;28;1035;-51
2022/10/23 23:56:26;;;;;;;;;;;;;;;19.59;51.77;95743.00;10499515;28;1973;-50
